M I D A S
Marine Information and Data Acquisition System
Tripno 369 of the Zeeleeuw from 2002-12-13 08:24:36 to 2002-12-13 14:47:19
Back to CruiseResearch ActivitiesStationsMapUnderway DataData graphs

EquipmentUnitsComment
TimeDGPSUTC
LatitudeDGPSDM.mWGS84
LongitudeDGPSDM.mWGS84
TemperatureSBE03/SBE38deg celciusITS90
ConductivitySBE21S/mITS90
SalinitySBE21 Practical Salinity Units
ChlorophylAChelsea fluorimeterg/lCalibrated in Aceton
Missing or incorrect values are displayed as -999
Sea surface data collected by the RV Zeeleeuw from 2002-12-13 08:24:36 to 2002-12-13 14:47:19
                                                                                    Next 1000 lines
Time Latitude Longitude Temperature Conductivity Salinity ChlorophylA
2002-12-13 08:24:44 51°11.187 2°44.906 5.232327 3.144815 32.239929  
2002-12-13 08:24:49 51°11.179 2°44.879 5.19887 3.145552 32.249131  
2002-12-13 08:24:53 51°11.174 2°44.857 5.19887 3.145552 32.249131  
2002-12-13 08:24:59 51°11.165 2°44.825 5.204987 3.146605 32.26024  
2002-12-13 08:25:04 51°11.158 2°44.798 5.293332 3.147342 32.266087  
2002-12-13 08:25:09 51°11.151 2°44.771 5.212619 3.149237 32.280878  
2002-12-13 08:25:13 51°11.144 2°44.749 5.213428 3.151132 32.296505  
2002-12-13 08:25:19 51°11.135 2°44.717 5.211659 3.153133 32.311643  
2002-12-13 08:25:24 51°11.128 2°44.69 5.211659 3.153133 32.311643  
2002-12-13 08:25:29 51°11.121 2°44.662 5.250059 3.154186 32.319388  
2002-12-13 08:25:34 51°11.114 2°44.635 5.252988 3.155976 32.33381  
2002-12-13 08:25:39 51°11.106 2°44.607 5.219038 3.157239 32.343099  
2002-12-13 08:25:43 51°11.1 2°44.586 5.348377 3.158502 32.354907  
2002-12-13 08:25:49 51°11.091 2°44.553 5.269604 3.159555 32.365166  
2002-12-13 08:25:54 51°11.084 2°44.527 5.269604 3.159555 32.365166  
2002-12-13 08:25:59 51°11.077 2°44.499 5.272431 3.160292 32.374365  
2002-12-13 08:26:03 51°11.071 2°44.477 5.232074 3.161766 32.389401  
2002-12-13 08:26:09 51°11.062 2°44.444 5.235864 3.162819 32.39966  
2002-12-13 08:26:14 51°11.054 2°44.417 5.242633 3.164399 32.414205  
2002-12-13 08:26:19 51°11.048 2°44.39 5.253696 3.165662 32.424325  
2002-12-13 08:26:24 51°11.04 2°44.362 5.253696 3.165662 32.424325  
2002-12-13 08:26:29 51°11.032 2°44.335 5.346864 3.166188 32.426928  
2002-12-13 08:26:33 51°11.026 2°44.314 5.27435 3.166925 32.432759  
2002-12-13 08:26:39 51°11.016 2°44.282 5.280409 3.168294 32.444911  
2002-12-13 08:26:44 51°11.01 2°44.254 5.282731 3.169663 32.45622  
2002-12-13 08:26:49 51°11.001 2°44.228 5.322652 3.171348 32.469422  
2002-12-13 08:26:54 51°10.995 2°44.2 5.322652 3.171348 32.469422  
2002-12-13 08:26:59 51°10.987 2°44.173 5.286467 3.173137 32.480444  
2002-12-13 08:27:04 51°10.979 2°44.146 5.296259 3.17598 32.504237  
2002-12-13 08:27:09 51°10.971 2°44.119 5.424282 3.177981 32.51932  
2002-12-13 08:27:13 51°10.965 2°44.097 5.307464 3.180508 32.541207  
2002-12-13 08:27:19 51°10.956 2°44.064 5.315992 3.182508 32.561342  
2002-12-13 08:27:24 51°10.949 2°44.037 5.315992 3.182508 32.561342  
2002-12-13 08:27:29 51°10.942 2°44.01 5.325326 3.184825 32.582523  
2002-12-13 08:27:34 51°10.935 2°43.982 5.334305 3.187141 32.606235  
2002-12-13 08:27:38 51°10.929 2°43.96 5.386795 3.188826 32.619407  
2002-12-13 08:27:44 51°10.92 2°43.928 5.353017 3.1903 32.630191  
2002-12-13 08:27:49 51°10.913 2°43.901 5.441507 3.191774 32.640971  
2002-12-13 08:27:53 51°10.907 2°43.879 5.441507 3.191774 32.640971  
2002-12-13 08:27:59 51°10.898 2°43.846 5.364917 3.193459 32.651598  
2002-12-13 08:28:04 51°10.89 2°43.819 5.369404 3.194722 32.658298  
2002-12-13 08:28:09 51°10.883 2°43.792 5.373084 3.196828 32.673686  
2002-12-13 08:28:13 51°10.877 2°43.77 5.376462 3.198723 32.684994  
2002-12-13 08:28:17 51°10.871 2°43.748 5.380141 3.200408 32.697297  
2002-12-13 08:28:24 51°10.86 2°43.71 5.380141 3.200408 32.697297  
2002-12-13 08:28:29 51°10.854 2°43.683 5.425844 3.201882 32.708058  
2002-12-13 08:28:33 51°10.848 2°43.661 5.387954 3.203461 32.720009  
2002-12-13 08:28:39 51°10.839 2°43.628 5.431989 3.203988 32.72089  
2002-12-13 08:28:44 51°10.831 2°43.601 5.391432 3.204936 32.727381  
2002-12-13 08:28:49 51°10.823 2°43.573 5.390676 3.205778 32.731835  
2002-12-13 08:28:53 51°10.816 2°43.552 5.390676 3.205778 32.731835  
2002-12-13 08:28:59 51°10.807 2°43.519 5.392893 3.20662 32.738825  
2002-12-13 08:29:04 51°10.8 2°43.491 5.438083 3.207147 32.740549  
2002-12-13 08:29:09 51°10.792 2°43.464 5.400855 3.208094 32.748729  
2002-12-13 08:29:14 51°10.785 2°43.437 5.407607 3.209147 32.758944  
2002-12-13 08:29:19 51°10.777 2°43.409 5.455958 3.209779 32.765242  
2002-12-13 08:29:23 51°10.771 2°43.387 5.455958 3.209779 32.765242  
2002-12-13 08:29:29 51°10.763 2°43.355 5.422973 3.210832 32.773764  
2002-12-13 08:29:34 51°10.755 2°43.327 5.432291 3.211464 32.780061  
2002-12-13 08:29:39 51°10.748 2°43.3 5.44196 3.212727 32.790962  
2002-12-13 08:29:44 51°10.741 2°43.272 5.494612 3.213675 32.797444  
2002-12-13 08:29:49 51°10.734 2°43.245 5.468694 3.215044 32.806991  
2002-12-13 08:29:53 51°10.728 2°43.224 5.468694 3.215044 32.806991  
2002-12-13 08:29:59 51°10.719 2°43.191 5.482585 3.216623 32.81807  
2002-12-13 08:30:04 51°10.711 2°43.164 5.500549 3.218413 32.832374  
2002-12-13 08:30:09 51°10.704 2°43.137 5.520167 3.219993 32.840904  
2002-12-13 08:30:14 51°10.696 2°43.11 5.535505 3.221888 32.854695  
2002-12-13 08:30:19 51°10.689 2°43.082 5.549432 3.223573 32.861866  
2002-12-13 08:30:23 51°10.683 2°43.061 5.549432 3.223573 32.861866  
2002-12-13 08:30:29 51°10.675 2°43.028 5.560239 3.2261 32.877699  
2002-12-13 08:30:33 51°10.669 2°43.006 5.567175 3.228522 32.89064  
2002-12-13 08:30:39 51°10.66 2°42.974 5.572502 3.232313 32.917327  
2002-12-13 08:30:44 51°10.653 2°42.947 5.600236 3.235366 32.934832  
2002-12-13 08:30:49 51°10.645 2°42.92 5.559586 3.237999 32.949271  
2002-12-13 08:30:54 51°10.638 2°42.893 5.559586 3.237999 32.949271  
2002-12-13 08:30:59 51°10.63 2°42.867 5.569034 3.239894 32.957932  
2002-12-13 08:31:04 51°10.622 2°42.84 5.576623 3.242421 32.977099  
2002-12-13 08:31:09 51°10.614 2°42.813 5.665603 3.243685 32.983714  
2002-12-13 08:31:14 51°10.607 2°42.786 5.589284 3.244317 32.991682  
2002-12-13 08:31:19 51°10.6 2°42.759 5.5927 3.244738 32.996429  
2002-12-13 08:31:23 51°10.594 2°42.737 5.5927 3.244738 32.996429  
2002-12-13 08:31:29 51°10.585 2°42.705 5.594961 3.24537 33.001006  
2002-12-13 08:31:34 51°10.578 2°42.678 5.639203 3.246318 33.005751  
2002-12-13 08:31:39 51°10.57 2°42.651 5.600437 3.247265 33.010495  
2002-12-13 08:31:44 51°10.563 2°42.624 5.643018 3.248108 33.013204  
2002-12-13 08:31:49 51°10.556 2°42.597 5.604204 3.244422 32.966611  
2002-12-13 08:31:54 51°10.548 2°42.57 5.604204 3.244422 32.966611  
2002-12-13 08:31:59 51°10.541 2°42.543 5.605459 3.249582 33.020486  
2002-12-13 08:32:03 51°10.535 2°42.522 5.60782 3.250108 33.02472  
2002-12-13 08:32:09 51°10.526 2°42.489 5.608674 3.25074 33.028445  
2002-12-13 08:32:14 51°10.518 2°42.463 5.610181 3.251056 33.028612  
2002-12-13 08:32:19 51°10.511 2°42.435 5.613495 3.251267 33.029288  
2002-12-13 08:32:24 51°10.503 2°42.409 5.613495 3.251267 33.029288  
2002-12-13 08:32:29 51°10.496 2°42.381 5.616609 3.251793 33.034369  
2002-12-13 08:32:34 51°10.488 2°42.355 5.742631 3.251898 33.032165  
2002-12-13 08:32:39 51°10.481 2°42.328 5.663094 3.252214 33.034026  
2002-12-13 08:32:44 51°10.473 2°42.301 5.624944 3.252741 33.037411  
2002-12-13 08:32:49 51°10.466 2°42.274 5.628308 3.253057 33.04012  
2002-12-13 08:32:53 51°10.46 2°42.253 5.628308 3.253057 33.04012  
2002-12-13 08:32:57 51°10.454 2°42.231 5.674734 3.253373 33.041134  
2002-12-13 08:33:04 51°10.443 2°42.194 5.635739 3.253794 33.042485  
2002-12-13 08:33:09 51°10.436 2°42.167 5.641161 3.254215 33.044684  
2002-12-13 08:33:14 51°10.429 2°42.14 5.647786 3.254847 33.0501  
2002-12-13 08:33:19 51°10.421 2°42.113 5.652153 3.255268 33.050603  
2002-12-13 08:33:24 51°10.414 2°42.086 5.652153 3.255268 33.050603  
2002-12-13 08:33:29 51°10.407 2°42.059 5.699113 3.2559 33.054324  
2002-12-13 08:33:33 51°10.4 2°42.037 5.662391 3.256953 33.062783  
2002-12-13 08:33:39 51°10.392 2°42.005 5.667559 3.257269 33.062948  
2002-12-13 08:33:44 51°10.384 2°41.978 5.714558 3.258217 33.068526  
2002-12-13 08:33:49 51°10.377 2°41.951 5.67925 3.259164 33.074103  
2002-12-13 08:33:54 51°10.369 2°41.924 5.67925 3.259164 33.074103  
2002-12-13 08:33:59 51°10.362 2°41.898 5.684969 3.259901 33.076462  
2002-12-13 08:34:04 51°10.354 2°41.871 5.69154 3.260849 33.083732  
2002-12-13 08:34:09 51°10.346 2°41.844 5.73812 3.261692 33.087273  
2002-12-13 08:34:13 51°10.341 2°41.822 5.700066 3.262323 33.088446  
2002-12-13 08:34:17 51°10.335 2°41.801 5.703577 3.26306 33.09165  
2002-12-13 08:34:24 51°10.325 2°41.763 5.703577 3.26306 33.09165  
2002-12-13 08:34:29 51°10.317 2°41.736 5.706535 3.264113 33.099252  
2002-12-13 08:34:34 51°10.31 2°41.709 5.750649 3.265167 33.105158  
2002-12-13 08:34:39 51°10.302 2°41.682 5.793981 3.26622 33.111062  
2002-12-13 08:34:43 51°10.296 2°41.661 5.753656 3.266535 33.109529  
2002-12-13 08:34:49 51°10.287 2°41.628 5.714959 3.267694 33.119156  
2002-12-13 08:34:54 51°10.279 2°41.602 5.714959 3.267694 33.119156  
2002-12-13 08:34:59 51°10.272 2°41.575 5.719221 3.267904 33.118134  
2002-12-13 08:35:04 51°10.265 2°41.548 5.72258 3.268326 33.120324  
2002-12-13 08:35:09 51°10.257 2°41.521 5.726741 3.268852 33.122004  
2002-12-13 08:35:14 51°10.25 2°41.494 5.773245 3.269484 33.127407  
2002-12-13 08:35:18 51°10.244 2°41.473 5.736766 3.2698 33.128414  
2002-12-13 08:35:23 51°10.236 2°41.446 5.736766 3.2698 33.128414  
2002-12-13 08:35:29 51°10.227 2°41.414 5.740074 3.270432 33.134664  
2002-12-13 08:35:34 51°10.219 2°41.387 5.743082 3.271274 33.13989  
2002-12-13 08:35:39 51°10.212 2°41.36 5.788221 3.272011 33.14478  
2002-12-13 08:35:43 51°10.206 2°41.339 5.7511 3.272117 33.14088  
2002-12-13 08:35:49 51°10.197 2°41.307 5.75581 3.273064 33.146439  
2002-12-13 08:35:54 51°10.189 2°41.28 5.75581 3.273064 33.146439  
2002-12-13 08:35:59 51°10.181 2°41.253 5.760219 3.273801 33.152174  
2002-12-13 08:36:04 51°10.173 2°41.227 5.762975 3.274539 33.157908  
2002-12-13 08:36:09 51°10.166 2°41.2 5.763276 3.275276 33.161948  
2002-12-13 08:36:14 51°10.158 2°41.173 5.762324 3.276013 33.166833  
2002-12-13 08:36:19 51°10.151 2°41.146 5.762424 3.276855 33.172053  
2002-12-13 08:36:24 51°10.143 2°41.12 5.762424 3.276855 33.172053  
2002-12-13 08:36:29 51°10.136 2°41.093 5.760721 3.277593 33.175243  
2002-12-13 08:36:33 51°10.13 2°41.071 5.760921 3.278014 33.177429  
2002-12-13 08:36:39 51°10.121 2°41.039 5.759318 3.278435 33.179614  
2002-12-13 08:36:44 51°10.113 2°41.012 5.756612 3.278962 33.183828  
2002-12-13 08:36:49 51°10.106 2°40.985 5.796234 3.279383 33.188555  
2002-12-13 08:36:53 51°10.1 2°40.964 5.796234 3.279383 33.188555  
2002-12-13 08:36:59 51°10.091 2°40.932 5.752954 3.279488 33.189736  
2002-12-13 08:37:03 51°10.085 2°40.91 5.791777 3.279067 33.185857  
2002-12-13 08:37:09 51°10.076 2°40.878 5.749496 3.279488 33.191431  
2002-12-13 08:37:13 51°10.07 2°40.857 5.747742 3.279383 33.190249  
2002-12-13 08:37:19 51°10.061 2°40.824 5.745638 3.279383 33.191944  
2002-12-13 08:37:24 51°10.054 2°40.797 5.745638 3.279383 33.191944  
2002-12-13 08:37:29 51°10.046 2°40.771 5.743833 3.279172 33.191276  
2002-12-13 08:37:33 51°10.04 2°40.749 5.741478 3.279172 33.193819  
2002-12-13 08:37:39 51°10.031 2°40.717 5.742029 3.278751 33.189091  
2002-12-13 08:37:44 51°10.023 2°40.69 5.740425 3.278751 33.191634  
2002-12-13 08:37:49 51°10.015 2°40.663 5.777703 3.278435 33.188936  
2002-12-13 08:37:54 51°10.009 2°40.636 5.777703 3.278435 33.188936  
2002-12-13 08:37:59 51°10 2°40.61 5.776301 3.278435 33.190631  
2002-12-13 08:38:04 51°9.994 2°40.583 5.736015 3.278014 33.188446  
2002-12-13 08:38:09 51°9.986 2°40.556 5.732606 3.278224 33.19081  
2002-12-13 08:38:14 51°9.979 2°40.529 5.730802 3.278014 33.189294  
2002-12-13 08:38:19 51°9.972 2°40.502 5.730451 3.277909 33.189807  
2002-12-13 08:38:23 51°9.966 2°40.481 5.730451 3.277909 33.189807  
2002-12-13 08:38:29 51°9.957 2°40.449 5.729348 3.277593 33.189652  
2002-12-13 08:38:33 51°9.951 2°40.427 5.769538 3.277487 33.189318  
2002-12-13 08:38:39 51°9.941 2°40.395 5.727944 3.277487 33.189318  
2002-12-13 08:38:44 51°9.934 2°40.369 5.888206 3.277171 33.188315  
2002-12-13 08:38:49 51°9.926 2°40.342 5.80054 3.277382 33.192376  
2002-12-13 08:38:53 51°9.92 2°40.321 5.80054 3.277382 33.192376  
2002-12-13 08:38:57 51°9.914 2°40.3 5.715411 3.277382 33.194072  
2002-12-13 08:39:03 51°9.905 2°40.268 5.712703 3.277382 33.19492  
2002-12-13 08:39:09 51°9.896 2°40.236 5.749847 3.277277 33.194586  
2002-12-13 08:39:13 51°9.89 2°40.215 5.703226 3.277066 33.193918  
2002-12-13 08:39:19 51°9.881 2°40.182 5.739573 3.276961 33.19528  
2002-12-13 08:39:24 51°9.873 2°40.156 5.739573 3.276961 33.19528  
2002-12-13 08:39:29 51°9.866 2°40.129 5.7303 3.27654 33.192246  
2002-12-13 08:39:34 51°9.859 2°40.103 5.6792 3.27654 33.198186  
2002-12-13 08:39:39 51°9.851 2°40.076 5.669115 3.276119 33.194303  
2002-12-13 08:39:43 51°9.845 2°40.054 5.662542 3.275697 33.195512  
2002-12-13 08:39:49 51°9.836 2°40.023 5.694148 3.275276 33.193325  
2002-12-13 08:39:54 51°9.829 2°39.996 5.694148 3.275276 33.193325  
2002-12-13 08:39:59 51°9.821 2°39.969 5.692994 3.27475 33.195899  
2002-12-13 08:40:04 51°9.814 2°39.943 5.64096 3.274118 33.19644  
2002-12-13 08:40:09 51°9.807 2°39.916 5.614349 3.272854 33.189878  
2002-12-13 08:40:13 51°9.801 2°39.894 5.603902 3.271801 33.184833  
2002-12-13 08:40:19 51°9.792 2°39.862 5.586069 3.271064 33.18419  
2002-12-13 08:40:24 51°9.784 2°39.836 5.586069 3.271064 33.18419  
2002-12-13 08:40:29 51°9.777 2°39.809 5.572552 3.270222 33.181512  
2002-12-13 08:40:34 51°9.769 2°39.783 5.555765 3.269485 33.180018  
2002-12-13 08:40:37 51°9.765 2°39.767 5.569537 3.268326 33.177184  
2002-12-13 08:40:44 51°9.754 2°39.729 5.508749 3.266536 33.17319  
2002-12-13 08:40:49 51°9.746 2°39.703 5.471614 3.264851 33.168678  
2002-12-13 08:40:54 51°9.739 2°39.676 5.471614 3.264851 33.168678  
2002-12-13 08:40:59 51°9.731 2°39.65 5.487165 3.263482 33.170277  
2002-12-13 08:41:03 51°9.726 2°39.628 5.461445 3.261587 33.162538  
2002-12-13 08:41:09 51°9.717 2°39.596 5.411285 3.259165 33.156524  
2002-12-13 08:41:14 51°9.71 2°39.569 5.340358 3.25727 33.1573  
2002-12-13 08:41:19 51°9.702 2°39.542 5.297572 3.254953 33.149912  
2002-12-13 08:41:24 51°9.694 2°39.515 5.297572 3.254953 33.149912  
2002-12-13 08:41:29 51°9.687 2°39.489 5.310441 3.25211 33.143398  
2002-12-13 08:41:33 51°9.681 2°39.467 5.23743 3.249478 33.137553  
2002-12-13 08:41:39 51°9.672 2°39.435 5.189417 3.245687 33.128856  
2002-12-13 08:41:44 51°9.665 2°39.408 5.158517 3.242002 33.119632  
2002-12-13 08:41:49 51°9.657 2°39.382 5.147539 3.238106 33.112294  
2002-12-13 08:41:53 51°9.651 2°39.36 5.147539 3.238106 33.112294  
2002-12-13 08:41:59 51°9.643 2°39.328 5.126084 3.234631 33.1063  
2002-12-13 08:42:03 51°9.637 2°39.307 5.105533 3.231262 33.103214  
2002-12-13 08:42:09 51°9.628 2°39.274 5.134282 3.22705 33.085407  
2002-12-13 08:42:14 51°9.62 2°39.248 5.069983 3.22347 33.080775  
2002-12-13 08:42:19 51°9.612 2°39.221 5.131196 3.220627 33.073354  
2002-12-13 08:42:23 51°9.606 2°39.2 5.131196 3.220627 33.073354  
2002-12-13 08:42:29 51°9.597 2°39.167 5.067754 3.217574 33.06009  
2002-12-13 08:42:34 51°9.59 2°39.14 5.019053 3.215468 33.06019  
2002-12-13 08:42:38 51°9.584 2°39.119 5.047437 3.213151 33.050146  
2002-12-13 08:42:44 51°9.576 2°39.086 5.036592 3.211256 33.048342  
2002-12-13 08:42:49 51°9.568 2°39.059 4.976352 3.208413 33.038312  
2002-12-13 08:42:54 51°9.561 2°39.033 4.976352 3.208413 33.038312  
2002-12-13 08:42:59 51°9.553 2°39.006 4.970162 3.206413 33.030993  
2002-12-13 08:43:04 51°9.546 2°38.979 5.009623 3.204518 33.030045  
2002-12-13 08:43:09 51°9.538 2°38.952 5.046879 3.203044 33.027009  
2002-12-13 08:43:13 51°9.532 2°38.93 4.954889 3.201675 33.023449  
2002-12-13 08:43:19 51°9.523 2°38.898 4.941287 3.200411 33.021091  
2002-12-13 08:43:24 51°9.516 2°38.871 4.941287 3.200411 33.021091  
2002-12-13 08:43:29 51°9.509 2°38.844 4.984874 3.199359 33.022867  
2002-12-13 08:43:34 51°9.501 2°38.817 4.972445 3.198095 33.017055  
2002-12-13 08:43:39 51°9.494 2°38.79 4.988374 3.197779 33.021216  
2002-12-13 08:43:43 51°9.488 2°38.768 4.995982 3.197253 33.020378  
2002-12-13 08:43:49 51°9.479 2°38.736 5.000444 3.196621 33.020063  
2002-12-13 08:43:54 51°9.471 2°38.709 5.000444 3.196621 33.020063  
2002-12-13 08:43:59 51°9.464 2°38.682 5.011803 3.195779 33.017338  
2002-12-13 08:44:03 51°9.458 2°38.66 5.05904 3.196726 33.021268  
2002-12-13 08:44:09 51°9.449 2°38.627 5.067703 3.1982 33.026898  
2002-12-13 08:44:14 51°9.441 2°38.6 5.016467 3.199674 33.031662  
2002-12-13 08:44:19 51°9.434 2°38.573 5.005668 3.200727 33.036792  
2002-12-13 08:44:24 51°9.427 2°38.546 5.005668 3.200727 33.036792  
2002-12-13 08:44:29 51°9.419 2°38.519 5.032182 3.201886 33.042259  
2002-12-13 08:44:33 51°9.413 2°38.497 4.969097 3.203149 33.048929  
2002-12-13 08:44:39 51°9.404 2°38.465 4.948443 3.204307 33.055257  
2002-12-13 08:44:44 51°9.397 2°38.437 5.010028 3.204939 33.062477  
2002-12-13 08:44:49 51°9.389 2°38.41 4.950829 3.20515 33.067476  
2002-12-13 08:44:54 51°9.382 2°38.383 4.950829 3.20515 33.067476  
2002-12-13 08:44:59 51°9.375 2°38.355 4.901123 3.204939 33.071984  
2002-12-13 08:45:04 51°9.367 2°38.328 4.897263 3.204202 33.077391  
2002-12-13 08:45:09 51°9.359 2°38.301 4.842888 3.203044 33.080582  
2002-12-13 08:45:13 51°9.354 2°38.279 4.830533 3.202097 33.093119  
2002-12-13 08:45:19 51°9.344 2°38.246 4.858138 3.200623 33.096174  
2002-12-13 08:45:24 51°9.337 2°38.219 4.858138 3.200623 33.096174  
2002-12-13 08:45:29 51°9.329 2°38.192 4.856054 3.198517 33.100672  
2002-12-13 08:45:34 51°9.322 2°38.164 4.8589 3.196306 33.107451  
2002-12-13 08:45:39 51°9.315 2°38.137 4.866473 3.193674 33.1068  
2002-12-13 08:45:44 51°9.306 2°38.11 4.844464 3.192516 33.099588  
2002-12-13 08:45:49 51°9.299 2°38.082 4.791367 3.192937 33.095727  
2002-12-13 08:45:53 51°9.293 2°38.06 4.791367 3.192937 33.095727  
2002-12-13 08:45:59 51°9.284 2°38.028 4.831804 3.193674 33.094625  
2002-12-13 08:46:04 51°9.276 2°38.001 4.795793 3.194516 33.099947  
2002-12-13 08:46:09 51°9.268 2°37.973 4.789026 3.1942 33.105886  
2002-12-13 08:46:13 51°9.262 2°37.951 4.785566 3.193358 33.114485  
2002-12-13 08:46:19 51°9.253 2°37.918 4.786584 3.192832 33.124111  
2002-12-13 08:46:24 51°9.246 2°37.891 4.786584 3.192832 33.124111  
2002-12-13 08:46:29 51°9.238 2°37.864 4.873689 3.192095 33.121739  
2002-12-13 08:46:34 51°9.231 2°37.836 4.794521 3.192095 33.126968  
2002-12-13 08:46:38 51°9.225 2°37.815 4.803018 3.1922 33.132537  
2002-12-13 08:46:44 51°9.215 2°37.782 4.812479 3.192832 33.141545  
2002-12-13 08:46:49 51°9.207 2°37.755 4.86195 3.193253 33.149877  
2002-12-13 08:46:54 51°9.2 2°37.727 4.86195 3.193253 33.149877  
2002-12-13 08:46:59 51°9.192 2°37.7 4.87125 3.194412 33.163197  
2002-12-13 08:47:04 51°9.185 2°37.672 4.840855 3.195886 33.176658  
2002-12-13 08:47:09 51°9.178 2°37.645 4.870589 3.197255 33.18978  
2002-12-13 08:47:14 51°9.17 2°37.617 4.905085 3.198202 33.194564  
2002-12-13 08:47:19 51°9.163 2°37.59 4.931083 3.199782 33.205736  
2002-12-13 08:47:23 51°9.156 2°37.568 4.931083 3.199782 33.205736  
2002-12-13 08:47:29 51°9.147 2°37.536 5.007797 3.201361 33.216032  
2002-12-13 08:47:34 51°9.14 2°37.508 5.035477 3.202519 33.219737  
2002-12-13 08:47:39 51°9.132 2°37.481 5.063245 3.204625 33.227343  
2002-12-13 08:47:44 51°9.125 2°37.454 5.031472 3.2081 33.245425  
2002-12-13 08:47:49 51°9.118 2°37.426 5.071604 3.210837 33.250671  
2002-12-13 08:47:54 51°9.11 2°37.399 5.071604 3.210837 33.250671  
2002-12-13 08:47:59 51°9.103 2°37.372 5.073934 3.214628 33.265371  
2002-12-13 08:48:03 51°9.097 2°37.352 5.037301 3.218102 33.279051  
2002-12-13 08:48:09 51°9.089 2°37.324 5.083101 3.221156 33.28528  
2002-12-13 08:48:14 51°9.083 2°37.302 5.128564 3.223893 33.298336  
2002-12-13 08:48:19 51°9.079 2°37.281 5.049058 3.224946 33.296458  
2002-12-13 08:48:23 51°9.075 2°37.266 5.049058 3.224946 33.296458  
2002-12-13 08:48:29 51°9.072 2°37.246 5.053568 3.225894 33.301209  
2002-12-13 08:48:34 51°9.068 2°37.232 5.06208 3.22621 33.299602  
2002-12-13 08:48:39 51°9.066 2°37.218 5.06826 3.227158 33.304351  
2002-12-13 08:48:44 51°9.064 2°37.207 5.116417 3.227684 33.305152  
2002-12-13 08:48:49 51°9.063 2°37.197 5.080417 3.228105 33.30475  
2002-12-13 08:48:53 51°9.063 2°37.19 5.080417 3.228105 33.30475  
2002-12-13 08:48:59 51°9.063 2°37.182 5.126337 3.228632 33.305551  
2002-12-13 08:49:04 51°9.064 2°37.177 5.131145 3.228947 33.305684  
2002-12-13 08:49:09 51°9.064 2°37.174 5.093989 3.229895 33.309561  
2002-12-13 08:49:14 51°9.065 2°37.172 5.140355 3.229895 33.303476  
2002-12-13 08:49:19 51°9.066 2°37.17 5.102799 3.230632 33.305815  
2002-12-13 08:49:23 51°9.066 2°37.169 5.102799 3.230632 33.305815  
2002-12-13 08:49:29 51°9.068 2°37.167 5.147742 3.231475 33.311095  
2002-12-13 08:49:34 51°9.068 2°37.165 5.106292 3.23158 33.307084  
2002-12-13 08:49:39 51°9.069 2°37.164 5.147337 3.232106 33.307886  
2002-12-13 08:49:44 51°9.07 2°37.163 5.107153 3.232527 33.306617  
2002-12-13 08:49:49 51°9.071 2°37.162 5.106849 3.232949 33.307953  
2002-12-13 08:49:53 51°9.072 2°37.161 5.106849 3.232949 33.307953  
2002-12-13 08:49:59 51°9.073 2°37.16 5.152447 3.23337 33.30842  
2002-12-13 08:50:04 51°9.074 2°37.159 5.154824 3.23358 33.309956  
2002-12-13 08:50:09 51°9.075 2°37.158 5.12077 3.233686 33.31029  
2002-12-13 08:50:14 51°9.076 2°37.157 5.248341 3.233896 33.310958  
2002-12-13 08:50:19 51°9.078 2°37.156 5.133169 3.233896 33.31009  
2002-12-13 08:50:23 51°9.078 2°37.155 5.133169 3.233896 33.31009  
2002-12-13 08:50:29 51°9.08 2°37.154 5.143492 3.234107 33.310758  
2002-12-13 08:50:34 51°9.081 2°37.153 5.149411 3.234107 33.308154  
2002-12-13 08:50:39 51°9.082 2°37.153 5.191034 3.234528 33.310357  
2002-12-13 08:50:44 51°9.083 2°37.152 5.151131 3.23516 33.313228  
2002-12-13 08:50:49 51°9.084 2°37.151 5.19422 3.235265 33.308356  
2002-12-13 08:50:53 51°9.085 2°37.15 5.19422 3.235265 33.308356  
2002-12-13 08:50:59 51°9.086 2°37.15 5.151435 3.235581 33.30502  
2002-12-13 08:51:03 51°9.087 2°37.149 5.15189 3.236318 33.307357  
2002-12-13 08:51:09 51°9.088 2°37.148 5.151738 3.236423 33.302489  
2002-12-13 08:51:13 51°9.09 2°37.148 5.153003 3.236844 33.305558  
2002-12-13 08:51:19 51°9.091 2°37.147 5.15528 3.237055 33.304492  
2002-12-13 08:51:24 51°9.092 2°37.146 5.15528 3.237055 33.304492  
2002-12-13 08:51:29 51°9.093 2°37.146 5.156089 3.23716 33.304826  
2002-12-13 08:51:34 51°9.095 2°37.145 5.156898 3.23695 33.303292  
2002-12-13 08:51:39 51°9.096 2°37.145 5.15442 3.23716 33.303959  
2002-12-13 08:51:43 51°9.096 2°37.144 5.15614 3.237055 33.302759  
2002-12-13 08:51:49 51°9.098 2°37.144 5.194776 3.23716 33.302226  
2002-12-13 08:51:54 51°9.099 2°37.143 5.194776 3.23716 33.302226  
2002-12-13 08:51:59 51°9.1 2°37.143 5.194068 3.237055 33.299292  
2002-12-13 08:52:03 51°9.102 2°37.142 5.151283 3.237265 33.300827  
2002-12-13 08:52:09 51°9.103 2°37.142 5.152042 3.237265 33.29996  
2002-12-13 08:52:14 51°9.104 2°37.141 5.190428 3.237055 33.298426  
2002-12-13 08:52:19 51°9.105 2°37.14 5.149108 3.237265 33.29996  
2002-12-13 08:52:24 51°9.106 2°37.14 5.149108 3.237265 33.29996  
2002-12-13 08:52:29 51°9.107 2°37.14 5.14501 3.236844 33.296891  
2002-12-13 08:52:33 51°9.108 2°37.139 5.182388 3.23695 33.298958  
2002-12-13 08:52:39 51°9.11 2°37.139 5.220402 3.236844 33.298624  
2002-12-13 08:52:44 51°9.111 2°37.139 5.174247 3.236634 33.297089  
2002-12-13 08:52:49 51°9.112 2°37.138 5.132815 3.236212 33.293153  
2002-12-13 08:52:54 51°9.113 2°37.138 5.132815 3.236212 33.293153  
2002-12-13 08:52:59 51°9.114 2°37.138 5.128361 3.236318 33.296087  
2002-12-13 08:53:04 51°9.115 2°37.137 5.165649 3.235791 33.29355  
2002-12-13 08:53:09 51°9.117 2°37.137 5.122389 3.235686 33.294083  
2002-12-13 08:53:14 51°9.118 2°37.137 5.116569 3.23537 33.294814  
2002-12-13 08:53:19 51°9.119 2°37.137 5.11343 3.23516 33.295879  
2002-12-13 08:53:24 51°9.12 2°37.136 5.11343 3.23516 33.295879  
2002-12-13 08:53:29 51°9.121 2°37.136 5.149108 3.234528 33.290406  
2002-12-13 08:53:33 51°9.122 2°37.136 5.102647 3.234317 33.290605  
2002-12-13 08:53:39 51°9.123 2°37.136 5.097888 3.233685 33.286865  
2002-12-13 08:53:44 51°9.124 2°37.135 5.133928 3.233159 33.284326  
2002-12-13 08:53:49 51°9.125 2°37.135 5.086241 3.233054 33.285726  
2002-12-13 08:53:54 51°9.126 2°37.135 5.086241 3.233054 33.285726  
2002-12-13 08:53:59 51°9.128 2°37.135 5.081886 3.232317 33.283385  
2002-12-13 08:54:04 51°9.129 2°37.134 5.080822 3.231369 33.276905  
2002-12-13 08:54:09 51°9.13 2°37.134 5.078543 3.230948 33.276434  
2002-12-13 08:54:14 51°9.131 2°37.134 5.11748 3.230527 33.275963  
2002-12-13 08:54:19 51°9.132 2°37.134 5.072414 3.230105 33.276359  
2002-12-13 08:54:24 51°9.133 2°37.134 5.072414 3.230105 33.276359  
2002-12-13 08:54:29 51°9.134 2°37.133 5.069375 3.229368 33.273149  
2002-12-13 08:54:33 51°9.135 2°37.133 5.107102 3.228947 33.272677  
2002-12-13 08:54:39 51°9.136 2°37.133 5.063245 3.228421 33.269268  
2002-12-13 08:54:44 51°9.138 2°37.133 5.062232 3.228315 33.268933  
2002-12-13 08:54:49 51°9.139 2°37.133 5.102799 3.227473 33.264518  
2002-12-13 08:54:54 51°9.139 2°37.133 5.102799 3.227473 33.264518  
2002-12-13 08:54:59 51°9.141 2°37.133 5.063346 3.227262 33.263848  
2002-12-13 08:55:03 51°9.141 2°37.133 5.103862 3.227052 33.264046  
2002-12-13 08:55:09 51°9.143 2°37.132 5.101989 3.226525 33.261503  
2002-12-13 08:55:13 51°9.144 2°37.133 5.143087 3.226315 33.260833  
2002-12-13 08:55:19 51°9.145 2°37.132 5.101483 3.226209 33.261365  
2002-12-13 08:55:24 51°9.146 2°37.133 5.101483 3.226209 33.261365  
2002-12-13 08:55:29 51°9.147 2°37.133 5.142935 3.225999 33.258959  
2002-12-13 08:55:33 51°9.147 2°37.133 5.060256 3.226104 33.259295  
2002-12-13 08:55:39 51°9.149 2°37.133 5.059952 3.225578 33.255883  
2002-12-13 08:55:44 51°9.149 2°37.133 5.060256 3.225788 33.259157  
2002-12-13 08:55:49 51°9.15 2°37.133 5.060712 3.225683 33.258822  
2002-12-13 08:55:54 51°9.151 2°37.133 5.060712 3.225683 33.258822  
2002-12-13 08:55:59 51°9.152 2°37.133 5.061877 3.225262 33.254009  
2002-12-13 08:56:04 51°9.153 2°37.133 5.104115 3.225472 33.256416  
2002-12-13 08:56:09 51°9.153 2°37.133 5.062992 3.225262 33.254877  
2002-12-13 08:56:14 51°9.154 2°37.133 5.065322 3.225472 33.25468  
2002-12-13 08:56:19 51°9.155 2°37.133 5.069172 3.225578 33.257619  
2002-12-13 08:56:23 51°9.156 2°37.133 5.069172 3.225578 33.257619  
2002-12-13 08:56:29 51°9.157 2°37.133 5.156342 3.225367 33.255212  
2002-12-13 08:56:34 51°9.158 2°37.133 5.075656 3.225367 33.255212  
2002-12-13 08:56:39 51°9.159 2°37.133 5.077429 3.225367 33.253477  
2002-12-13 08:56:44 51°9.161 2°37.133 5.124465 3.225262 33.251406  
2002-12-13 08:56:49 51°9.162 2°37.133 5.127501 3.225472 33.252944  
2002-12-13 08:56:53 51°9.163 2°37.133 5.127501 3.225472 33.252944  
2002-12-13 08:56:59 51°9.165 2°37.134 5.09247 3.225788 33.253082  
2002-12-13 08:57:04 51°9.166 2°37.134 5.10209 3.225999 33.252885  
2002-12-13 08:57:09 51°9.168 2°37.134 5.106393 3.226315 33.253891  
2002-12-13 08:57:14 51°9.169 2°37.134 5.108823 3.226315 33.250421  
2002-12-13 08:57:19 51°9.17 2°37.135 5.114189 3.226736 33.250895  
2002-12-13 08:57:24 51°9.172 2°37.135 5.114189 3.226736 33.250895  
2002-12-13 08:57:29 51°9.174 2°37.135 5.117986 3.227157 33.250502  
2002-12-13 08:57:33 51°9.175 2°37.135 5.121175 3.227789 33.252513  
2002-12-13 08:57:39 51°9.177 2°37.136 5.170252 3.227683 33.245243  
2002-12-13 08:57:44 51°9.179 2°37.137 5.133017 3.228631 33.252594  
2002-12-13 08:57:49 51°9.181 2°37.137 5.135851 3.228947 33.250999  
2002-12-13 08:57:54 51°9.183 2°37.138 5.135851 3.228947 33.250999  
2002-12-13 08:57:59 51°9.185 2°37.139 5.141923 3.229473 33.253542  
2002-12-13 08:58:04 51°9.186 2°37.139 5.184664 3.229684 33.251612  
2002-12-13 08:58:09 51°9.188 2°37.14 5.189214 3.23 33.250019  
2002-12-13 08:58:14 51°9.19 2°37.141 5.154824 3.230737 33.254097  
2002-12-13 08:58:19 51°9.192 2°37.141 5.164283 3.230842 33.250968  
2002-12-13 08:58:23 51°9.194 2°37.142 5.164283 3.230842 33.250968  
2002-12-13 08:58:29 51°9.196 2°37.143 5.213731 3.231579 33.255045  
2002-12-13 08:58:33 51°9.198 2°37.144 5.178798 3.23179 33.253983  
2002-12-13 08:58:39 51°9.201 2°37.145 5.226617 3.232106 33.254123  
2002-12-13 08:58:44 51°9.203 2°37.147 5.194017 3.232737 33.256998  
2002-12-13 08:58:49 51°9.205 2°37.148 5.286972 3.232948 33.25334  
2002-12-13 08:58:54 51°9.207 2°37.149 5.286972 3.232948 33.25334  
2002-12-13 08:58:59 51°9.209 2°37.15 5.214287 3.234001 33.25669  
2002-12-13 08:59:04 51°9.211 2°37.151 5.228285 3.234527 33.255768  
2002-12-13 08:59:09 51°9.213 2°37.152 5.241168 3.23558 33.261711  
2002-12-13 08:59:14 51°9.215 2°37.154 5.251776 3.236212 33.26199  
2002-12-13 08:59:19 51°9.216 2°37.155 5.263897 3.236528 33.257806  
2002-12-13 08:59:23 51°9.218 2°37.156 5.263897 3.236528 33.257806  
2002-12-13 08:59:29 51°9.22 2°37.157 5.272936 3.237581 33.261153  
2002-12-13 08:59:34 51°9.222 2°37.158 5.287022 3.238213 33.256248  
2002-12-13 08:59:39 51°9.224 2°37.16 5.338189 3.239581 33.261462  
2002-12-13 08:59:44 51°9.225 2°37.161 5.307009 3.240529 33.261883  
2002-12-13 08:59:49 51°9.227 2°37.162 5.316849 3.241477 33.260577  
2002-12-13 08:59:53 51°9.228 2°37.163 5.316849 3.241477 33.260577  
2002-12-13 08:59:59 51°9.231 2°37.164 5.325174 3.242635 33.26253  
2002-12-13 09:00:03 51°9.232 2°37.166 5.33375 3.243267 33.260224  
2002-12-13 09:00:09 51°9.235 2°37.169 5.345301 3.244741 33.264905  
2002-12-13 09:00:13 51°9.237 2°37.171 5.353017 3.245689 33.265327  
2002-12-13 09:00:19 51°9.241 2°37.177 5.364413 3.246426 33.265081  
2002-12-13 09:00:23 51°9.244 2°37.182 5.364413 3.246426 33.265081  
2002-12-13 09:00:29 51°9.248 2°37.19 5.381805 3.247373 33.266366  
2002-12-13 09:00:34 51°9.25 2°37.198 5.399394 3.248216 33.266455  
2002-12-13 09:00:39 51°9.252 2°37.207 5.414913 3.248847 33.265015  
2002-12-13 09:00:44 51°9.253 2°37.216 5.433248 3.249795 33.26544  
2002-12-13 09:00:49 51°9.254 2°37.224 5.484749 3.250848 33.266199  
2002-12-13 09:00:54 51°9.254 2°37.234 5.484749 3.250848 33.266199  
2002-12-13 09:00:59 51°9.253 2°37.242 5.45626 3.25148 33.260462  
2002-12-13 09:01:04 51°9.252 2°37.251 5.501052 3.253164 33.266667  
2002-12-13 09:01:09 51°9.25 2°37.26 5.453088 3.254323 33.266042  
2002-12-13 09:01:13 51°9.248 2°37.266 5.449463 3.255692 33.263511  
2002-12-13 09:01:19 51°9.245 2°37.275 5.444528 3.25685 33.262891  
2002-12-13 09:01:24 51°9.241 2°37.282 5.444528 3.25685 33.262891  
2002-12-13 09:01:29 51°9.237 2°37.288 5.43914 3.258113 33.265181  
2002-12-13 09:01:34 51°9.233 2°37.293 5.429118 3.25885 33.264085  
2002-12-13 09:01:39 51°9.228 2°37.297 5.406045 3.259693 33.270186  
2002-12-13 09:01:44 51°9.223 2°37.301 5.374697 3.259693 33.271044  
2002-12-13 09:01:49 51°9.217 2°37.303 5.384829 3.259588 33.272427  
2002-12-13 09:01:53 51°9.213 2°37.304 5.384829 3.259588 33.272427  
2002-12-13 09:01:57 51°9.209 2°37.304 5.303224 3.259377 33.271759  
2002-12-13 09:02:04 51°9.201 2°37.304 5.268543 3.258956 33.272141  
2002-12-13 09:02:09 51°9.195 2°37.303 5.232175 3.258324 33.278724  
2002-12-13 09:02:14 51°9.189 2°37.301 5.233085 3.256955 33.28126  
2002-12-13 09:02:17 51°9.185 2°37.3 5.158972 3.254955 33.284379  
2002-12-13 09:02:24 51°9.176 2°37.297 5.158972 3.254955 33.284379  
2002-12-13 09:02:29 51°9.171 2°37.294 5.128564 3.252849 33.292339  
2002-12-13 09:02:34 51°9.164 2°37.291 5.101989 3.250322 33.29295  
2002-12-13 09:02:39 51°9.158 2°37.288 5.083557 3.247268 33.290173  
2002-12-13 09:02:44 51°9.152 2°37.284 5.073579 3.244109 33.296566  
2002-12-13 09:02:49 51°9.146 2°37.28 5.071604 3.240319 33.282815  
2002-12-13 09:02:53 51°9.141 2°37.276 5.071604 3.240319 33.282815  
2002-12-13 09:02:59 51°9.134 2°37.272 5.082139 3.237476 33.285039  
2002-12-13 09:03:04 51°9.129 2°37.268 5.093381 3.234949 33.279612  
2002-12-13 09:03:09 51°9.124 2°37.263 5.105077 3.232527 33.277118  
2002-12-13 09:03:13 51°9.12 2°37.261 5.11343 3.230421 33.276496  
2002-12-13 09:03:19 51°9.115 2°37.256 5.121428 3.229474 33.273483  
2002-12-13 09:03:24 51°9.111 2°37.253 5.121428 3.229474 33.273483  
2002-12-13 09:03:29 51°9.108 2°37.249 5.119859 3.228631 33.26907  
2002-12-13 09:03:34 51°9.105 2°37.246 5.11996 3.229158 33.270744  
2002-12-13 09:03:39 51°9.102 2°37.242 5.124414 3.230316 33.277029  
2002-12-13 09:03:43 51°9.101 2°37.24 5.127805 3.231369 33.280375  
2002-12-13 09:03:49 51°9.1 2°37.238 5.129323 3.232211 33.283051  
2002-12-13 09:03:53 51°9.099 2°37.238 5.129323 3.232211 33.283051  
2002-12-13 09:03:59 51°9.099 2°37.238 5.131702 3.233054 33.288328  
2002-12-13 09:04:02 51°9.099 2°37.238 5.132208 3.233896 33.296206  
2002-12-13 09:04:09 51°9.1 2°37.238 5.136408 3.233791 33.293269  
2002-12-13 09:04:14 51°9.1 2°37.238 5.136003 3.234528 33.299945  
2002-12-13 09:04:19 51°9.1 2°37.237 5.137369 3.235054 33.302483  
2002-12-13 09:04:24 51°9.1 2°37.237 5.137369 3.235054 33.302483  
2002-12-13 09:04:29 51°9.1 2°37.236 5.137369 3.235686 33.307089  
2002-12-13 09:04:34 51°9.1 2°37.236 5.178596 3.235791 33.307423  
2002-12-13 09:04:39 51°9.1 2°37.236 5.136964 3.236002 33.307223  
2002-12-13 09:04:44 51°9.1 2°37.235 5.179253 3.236318 33.309959  
2002-12-13 09:04:49 51°9.101 2°37.235 5.136408 3.236529 33.311494  
2002-12-13 09:04:53 51°9.101 2°37.234 5.136408 3.236529 33.311494  
2002-12-13 09:04:59 51°9.101 2°37.233 5.13661 3.236634 33.311828  
2002-12-13 09:05:04 51°9.101 2°37.233 5.137268 3.236844 33.312496  
2002-12-13 09:05:09 51°9.102 2°37.232 5.137572 3.236844 33.313363  
2002-12-13 09:05:13 51°9.102 2°37.231 5.138381 3.236844 33.31423  
2002-12-13 09:05:19 51°9.102 2°37.23 5.140557 3.236844 33.31423  
2002-12-13 09:05:24 51°9.102 2°37.229 5.140557 3.236844 33.31423  
2002-12-13 09:05:29 51°9.102 2°37.228 5.142176 3.237055 33.3175  
2002-12-13 09:05:34 51°9.103 2°37.227 5.144048 3.236844 33.31423  
2002-12-13 09:05:39 51°9.103 2°37.226 5.143795 3.236844 33.315098  
2002-12-13 09:05:42 51°9.103 2°37.226 5.200084 3.23695 33.313697  
2002-12-13 09:05:49 51°9.103 2°37.225 5.248746 3.23695 33.314564  
2002-12-13 09:05:54 51°9.103 2°37.224 5.248746 3.23695 33.314564  
2002-12-13 09:05:59 51°9.102 2°37.223 5.259453 3.237687 33.319502  
2002-12-13 09:06:04 51°9.103 2°37.222 5.180366 3.237371 33.315899  
2002-12-13 09:06:09 51°9.103 2°37.221 5.266725 3.237581 33.316566  
2002-12-13 09:06:14 51°9.103 2°37.22 5.18613 3.238319 33.318902  
2002-12-13 09:06:17 51°9.103 2°37.22 5.186332 3.23874 33.317635  
2002-12-13 09:06:23 51°9.103 2°37.219 5.186332 3.23874 33.317635  
2002-12-13 09:06:29 51°9.103 2°37.218 5.186383 3.239266 33.315835  
2002-12-13 09:06:33 51°9.103 2°37.217 5.185827 3.240003 33.316437  
2002-12-13 09:06:39 51°9.103 2°37.216 5.177635 3.240424 33.316039  
2002-12-13 09:06:43 51°9.104 2°37.216 5.254554 3.240846 33.318239  
2002-12-13 09:06:49 51°9.104 2°37.215 5.168481 3.241056 33.31804  
2002-12-13 09:06:54 51°9.104 2°37.215 5.168481 3.241056 33.31804  
2002-12-13 09:06:59 51°9.104 2°37.214 5.163019 3.241267 33.318707  
2002-12-13 09:07:03 51°9.104 2°37.214 5.241269 3.241267 33.319573  
2002-12-13 09:07:09 51°9.105 2°37.213 5.155229 3.241162 33.321839  
2002-12-13 09:07:13 51°9.105 2°37.213 5.194321 3.24074 33.319638  
2002-12-13 09:07:19 51°9.106 2°37.213 5.151991 3.240424 33.320371  
2002-12-13 09:07:24 51°9.106 2°37.213 5.151991 3.240424 33.320371  
2002-12-13 09:07:29 51°9.107 2°37.213 5.150423 3.240319 33.323505  
2002-12-13 09:07:33 51°9.107 2°37.213 5.148349 3.239898 33.322171  
2002-12-13 09:07:39 51°9.108 2°37.212 5.189973 3.239687 33.324105  
2002-12-13 09:07:43 51°9.108 2°37.213 5.149057 3.239477 33.325172  
2002-12-13 09:07:49 51°9.108 2°37.213 5.150372 3.239161 33.324172  
2002-12-13 09:07:53 51°9.109 2°37.213 5.150372 3.239161 33.324172  
2002-12-13 09:07:59 51°9.11 2°37.213 5.192855 3.238845 33.322304  
2002-12-13 09:08:04 51°9.11 2°37.213 5.151991 3.239056 33.325573  
2002-12-13 09:08:09 51°9.111 2°37.214 5.150929 3.238634 33.322504  
2002-12-13 09:08:13 51°9.111 2°37.214 5.150727 3.238529 33.322171  
2002-12-13 09:08:17 51°9.112 2°37.214 5.150727 3.23874 33.323705  
2002-12-13 09:08:24 51°9.112 2°37.215 5.150727 3.23874 33.323705  
2002-12-13 09:08:29 51°9.113 2°37.215 5.155532 3.238529 33.320436  
2002-12-13 09:08:33 51°9.114 2°37.215 5.156494 3.238634 33.32077  
2002-12-13 09:08:39 51°9.114 2°37.215 5.154268 3.238634 33.321637  
2002-12-13 09:08:44 51°9.115 2°37.215 12.431751 3.238529 33.321303  
2002-12-13 09:08:49 51°9.115 2°37.216 5.151991 3.238634 33.321637  
2002-12-13 09:08:54 51°9.116 2°37.216 5.151991 3.238634 33.321637  
2002-12-13 09:08:59 51°9.117 2°37.216 5.152042 3.238529 33.318702  
2002-12-13 09:09:02 51°9.117 2°37.216 5.152244 3.23874 33.318502  
2002-12-13 09:09:09 51°9.117 2°37.216 5.15184 3.238634 33.319035  
2002-12-13 09:09:14 51°9.118 2°37.217 5.153003 3.23874 33.320236  
2002-12-13 09:09:19 51°9.118 2°37.217 5.152194 3.238529 33.317835  
2002-12-13 09:09:22 51°9.118 2°37.217 5.152194 3.238529 33.317835  
2002-12-13 09:09:29 51°9.119 2°37.217 5.152548 3.238634 33.321637  
2002-12-13 09:09:34 51°9.119 2°37.217 5.152851 3.238529 33.319569  
2002-12-13 09:09:39 51°9.12 2°37.217 5.153762 3.238529 33.319569  
2002-12-13 09:09:44 51°9.12 2°37.217 5.154521 3.238634 33.321637  
2002-12-13 09:09:49 51°9.12 2°37.217 5.15968 3.238634 33.321637  
2002-12-13 09:09:54 51°9.121 2°37.216 5.15968 3.238634 33.321637  
2002-12-13 09:09:57 51°9.121 2°37.216 5.168583 3.238424 33.319235  
2002-12-13 09:10:03 51°9.121 2°37.216 5.174297 3.238529 33.319569  
2002-12-13 09:10:09 51°9.121 2°37.215 5.177584 3.238529 33.319569  
2002-12-13 09:10:14 51°9.121 2°37.215 5.17627 3.238529 33.319569  
2002-12-13 09:10:19 51°9.122 2°37.215 5.176877 3.238634 33.319035  
2002-12-13 09:10:24 51°9.122 2°37.215 5.176877 3.238634 33.319035  
2002-12-13 09:10:29 51°9.122 2°37.214 5.175157 3.23895 33.317435  
2002-12-13 09:10:34 51°9.122 2°37.214 5.17455 3.239056 33.313435  
2002-12-13 09:10:39 51°9.122 2°37.213 5.215096 3.239793 33.31577  
2002-12-13 09:10:44 51°9.122 2°37.213 5.173033 3.240109 33.318504  
2002-12-13 09:10:49 51°9.122 2°37.212 5.171819 3.240214 33.317971  
2002-12-13 09:10:53 51°9.122 2°37.212 5.171819 3.240214 33.317971  
2002-12-13 09:10:59 51°9.122 2°37.212 5.172275 3.240109 33.317637  
2002-12-13 09:11:04 51°9.122 2°37.211 5.171718 3.240319 33.320904  
2002-12-13 09:11:09 51°9.122 2°37.211 5.212366 3.239898 33.315237  
2002-12-13 09:11:14 51°9.122 2°37.211 5.170302 3.240214 33.317971  
2002-12-13 09:11:18 51°9.122 2°37.211 5.170302 3.240003 33.31817  
2002-12-13 09:11:24 51°9.122 2°37.21 5.170302 3.240003 33.31817  
2002-12-13 09:11:29 51°9.122 2°37.21 5.170555 3.239898 33.31697  
2002-12-13 09:11:33 51°9.122 2°37.209 5.170909 3.240003 33.31817  
2002-12-13 09:11:39 51°9.121 2°37.209 5.170707 3.239793 33.316637  
2002-12-13 09:11:44 51°9.121 2°37.209 5.213478 3.240003 33.319037  
2002-12-13 09:11:49 51°9.121 2°37.209 5.171061 3.240109 33.318504  
2002-12-13 09:11:53 51°9.121 2°37.209 5.171061 3.240109 33.318504  
2002-12-13 09:11:59 51°9.121 2°37.208 5.212215 3.240003 33.319037  
2002-12-13 09:12:04 51°9.121 2°37.208 5.170707 3.239477 33.313903  
2002-12-13 09:12:09 51°9.12 2°37.208 5.17101 3.239793 33.31837  
2002-12-13 09:12:14 51°9.12 2°37.208 5.211305 3.239477 33.313903  
2002-12-13 09:12:19 51°9.12 2°37.208 5.170353 3.238213 33.2995  
2002-12-13 09:12:23 51°9.12 2°37.207 5.170353 3.238213 33.2995  
2002-12-13 09:12:29 51°9.119 2°37.207 5.170302 3.240003 33.319037  
2002-12-13 09:12:34 51°9.119 2°37.208 5.169796 3.237897 33.295034  
2002-12-13 09:12:39 51°9.119 2°37.207 5.171819 3.23895 33.306169  
2002-12-13 09:12:44 51°9.118 2°37.207 5.173691 3.240003 33.31817  
2002-12-13 09:12:49 51°9.118 2°37.207 5.173134 3.239582 33.315103  
2002-12-13 09:12:54 51°9.117 2°37.207 5.173134 3.239582 33.315103  
2002-12-13 09:12:59 51°9.117 2°37.206 5.174146 3.239687 33.316303  
2002-12-13 09:13:04 51°9.117 2°37.206 5.215096 3.239898 33.317837  
2002-12-13 09:13:09 51°9.116 2°37.206 5.174803 3.239687 33.315436  
2002-12-13 09:13:13 51°9.116 2°37.206 5.217016 3.239477 33.312169  
2002-12-13 09:13:19 51°9.115 2°37.206 5.175916 3.239266 33.308903  
2002-12-13 09:13:24 51°9.115 2°37.206 5.175916 3.239266 33.308903  
2002-12-13 09:13:29 51°9.114 2°37.205 5.175056 3.239793 33.314903  
2002-12-13 09:13:33 51°9.114 2°37.205 5.175815 3.239161 33.307703  
2002-12-13 09:13:39 51°9.113 2°37.205 5.17541 3.239793 33.314037  
2002-12-13 09:13:44 51°9.112 2°37.205 5.174651 3.240109 33.315904  
2002-12-13 09:13:49 51°9.112 2°37.205 5.173741 3.239898 33.314371  
2002-12-13 09:13:54 51°9.111 2°37.205 5.173741 3.239898 33.314371  
2002-12-13 09:13:59 51°9.11 2°37.205 5.171819 3.239266 33.30717  
2002-12-13 09:14:04 51°9.11 2°37.205 5.171162 3.239266 33.30717  
2002-12-13 09:14:09 51°9.108 2°37.205 5.169898 3.239161 33.305104  
2002-12-13 09:14:14 51°9.107 2°37.204 5.170049 3.239477 33.30957  
2002-12-13 09:14:19 51°9.105 2°37.204 5.219189 3.239371 33.307504  
2002-12-13 09:14:24 51°9.102 2°37.203 5.219189 3.239371 33.307504  
2002-12-13 09:14:29 51°9.099 2°37.202 5.174803 3.239371 33.30837  
2002-12-13 09:14:34 51°9.096 2°37.201 5.211406 3.239582 33.315103  
2002-12-13 09:14:39 51°9.093 2°37.199 5.210446 3.239477 33.313036  
2002-12-13 09:14:43 51°9.091 2°37.197 5.169543 3.239056 33.309102  
2002-12-13 09:14:49 51°9.087 2°37.194 5.168785 3.239793 33.31577  
2002-12-13 09:14:54 51°9.083 2°37.191 5.168785 3.239793 33.31577  
2002-12-13 09:14:59 51°9.08 2°37.187 5.211255 3.240319 33.320904  
2002-12-13 09:15:04 51°9.077 2°37.182 5.213327 3.239266 33.309769  
2002-12-13 09:15:09 51°9.074 2°37.178 5.175208 3.239266 33.312369  
2002-12-13 09:15:13 51°9.071 2°37.174 5.216966 3.239898 33.318704  
2002-12-13 09:15:19 51°9.068 2°37.168 5.178141 3.239898 33.31957  
2002-12-13 09:15:21 51°9.067 2°37.166 5.178141 3.239898 33.31957  
2002-12-13 09:15:29 51°9.064 2°37.158 5.180265 3.240003 33.319904  
2002-12-13 09:15:34 51°9.062 2°37.152 5.182945 3.24053 33.324171  
2002-12-13 09:15:39 51°9.06 2°37.147 5.184714 3.241267 33.332573  
2002-12-13 09:15:44 51°9.059 2°37.142 5.269705 3.241056 33.327572  
2002-12-13 09:15:49 51°9.057 2°37.137 5.18886 3.241793 33.335973  
2002-12-13 09:15:54 51°9.056 2°37.131 5.18886 3.241793 33.335973  
2002-12-13 09:15:57 51°9.055 2°37.128 5.191742 3.242109 33.33784  
2002-12-13 09:16:05 51°9.054 2°37.12 5.195635 3.241477 33.328039  
2002-12-13 09:16:09 51°9.053 2°37.116 5.202915 3.242215 33.333838  
2002-12-13 09:16:14 51°9.052 2°37.11 5.213478 3.24232 33.333305  
2002-12-13 09:16:19 51°9.052 2°37.105 5.224546 3.242741 33.336371  
2002-12-13 09:16:24 51°9.051 2°37.1 5.224546 3.242741 33.336371  
2002-12-13 09:16:29 51°9.051 2°37.095 5.229649 3.242846 33.335837  
2002-12-13 09:16:33 51°9.051 2°37.091 5.23162 3.243478 33.338702  
2002-12-13 09:16:39 51°9.051 2°37.084 5.229245 3.244321 33.344833  
2002-12-13 09:16:43 51°9.051 2°37.08 5.229043 3.244742 33.342698  
2002-12-13 09:16:49 51°9.052 2°37.074 5.228133 3.245689 33.346561  
2002-12-13 09:16:53 51°9.052 2°37.071 5.228133 3.245689 33.346561  
2002-12-13 09:16:58 51°9.053 2°37.065 5.227931 3.247374 33.357082  
2002-12-13 09:17:02 51°9.053 2°37.062 5.22687 3.247585 33.354282  
2002-12-13 09:17:09 51°9.054 2°37.055 5.225708 3.248111 33.35941  
2002-12-13 09:17:14 51°9.056 2°37.051 5.225859 3.248848 33.366069  
2002-12-13 09:17:19 51°9.057 2°37.046 5.349487 3.247585 33.350818  
2002-12-13 09:17:24 51°9.057 2°37.042 5.349487 3.247585 33.350818  
2002-12-13 09:17:29 51°9.059 2°37.037 5.310037 3.24769 33.352883  
2002-12-13 09:17:34 51°9.06 2°37.033 5.229093 3.248638 33.364538  
2002-12-13 09:17:37 51°9.061 2°37.031 5.229649 3.24769 33.352883  
2002-12-13 09:17:43 51°9.063 2°37.026 5.229649 3.248006 33.357345  
2002-12-13 09:17:49 51°9.065 2°37.021 5.23354 3.247795 33.355814  
2002-12-13 09:17:54 51°9.066 2°37.017 5.23354 3.247795 33.355814  
2002-12-13 09:17:59 51°9.068 2°37.013 5.280812 3.247479 33.350485  
2002-12-13 09:18:04 51°9.07 2°37.01 5.247836 3.247479 33.350485  
2002-12-13 09:18:09 51°9.072 2°37.006 5.252534 3.24769 33.350284  
2002-12-13 09:18:14 51°9.074 2°37.003 5.256271 3.248217 33.356278  
2002-12-13 09:18:19 51°9.076 2°37 5.305041 3.248217 33.354546  
2002-12-13 09:18:24 51°9.078 2°36.997 5.305041 3.248217 33.354546  
2002-12-13 09:18:29 51°9.081 2°36.994 5.310138 3.248322 33.353146  
2002-12-13 09:18:34 51°9.083 2°36.991 5.273239 3.248743 33.352745  
2002-12-13 09:18:39 51°9.085 2°36.989 5.277733 3.249585 33.356271  
2002-12-13 09:18:43 51°9.087 2°36.987 5.280409 3.249901 33.353806  
2002-12-13 09:18:49 51°9.09 2°36.984 5.280964 3.250322 33.355137  
2002-12-13 09:18:54 51°9.093 2°36.982 5.280964 3.250322 33.355137  
2002-12-13 09:18:59 51°9.096 2°36.98 5.27844 3.251375 33.361057  
2002-12-13 09:19:02 51°9.097 2°36.979 5.276269 3.252007 33.364782  
2002-12-13 09:19:09 51°9.101 2°36.976 5.273037 3.251902 33.358393  
2002-12-13 09:19:14 51°9.103 2°36.975 5.270008 3.252744 33.363646  
2002-12-13 09:19:19 51°9.106 2°36.973 5.266018 3.252534 33.358657  
2002-12-13 09:19:24 51°9.108 2°36.972 5.266018 3.252534 33.358657  
2002-12-13 09:19:29 51°9.111 2°36.971 5.304738 3.252428 33.35746  
2002-12-13 09:19:34 51°9.114 2°36.969 5.26117 3.251797 33.350277  
2002-12-13 09:19:39 51°9.116 2°36.969 5.258797 3.252112 33.356463  
2002-12-13 09:19:43 51°9.119 2°36.968 5.258241 3.251586 33.353071  
2002-12-13 09:19:49 51°9.122 2°36.967 5.258999 3.25127 33.352073  
2002-12-13 09:19:53 51°9.124 2°36.967 5.258999 3.25127 33.352073  
2002-12-13 09:19:59 51°9.128 2°36.966 5.259251 3.250322 33.343026  
2002-12-13 09:20:04 51°9.13 2°36.966 5.259453 3.249585 33.337238  
2002-12-13 09:20:09 51°9.133 2°36.966 5.341316 3.24948 33.338634  
2002-12-13 09:20:14 51°9.136 2°36.966 5.256019 3.248848 33.334043  
2002-12-13 09:20:19 51°9.139 2°36.966 5.253645 3.248427 33.330982  
2002-12-13 09:20:22 51°9.14 2°36.966 5.253645 3.248427 33.330982  
2002-12-13 09:20:29 51°9.144 2°36.966 5.25112 3.248532 33.33045  
2002-12-13 09:20:34 51°9.147 2°36.967 5.330572 3.248216 33.327722  
2002-12-13 09:20:39 51°9.15 2°36.968 5.287224 3.2479 33.323264  
2002-12-13 09:20:44 51°9.153 2°36.968 5.283286 3.248111 33.327389  
2002-12-13 09:20:49 51°9.156 2°36.969 5.236672 3.247058 33.316277  
2002-12-13 09:20:54 51°9.158 2°36.97 5.236672 3.247058 33.316277  
2002-12-13 09:20:59 51°9.161 2°36.971 5.273694 3.247479 33.323661  
2002-12-13 09:21:02 51°9.163 2°36.972 5.227982 3.246426 33.312548  
2002-12-13 09:21:09 51°9.166 2°36.974 5.224344 3.246637 33.317537  
2002-12-13 09:21:13 51°9.169 2°36.975 5.220857 3.246321 33.315672  
2002-12-13 09:21:19 51°9.172 2°36.977 5.218532 3.245373 33.310942  
2002-12-13 09:21:25 51°9.176 2°36.979 5.218532 3.245373 33.310942  
2002-12-13 09:21:29 51°9.178 2°36.98 5.2155 3.244847 33.309275  
2002-12-13 09:21:34 51°9.18 2°36.982 5.212417 3.244215 33.305544  
2002-12-13 09:21:38 51°9.183 2°36.984 5.249907 3.24432 33.310201  
2002-12-13 09:21:44 51°9.186 2°36.987 5.207514 3.243583 33.306137  
2002-12-13 09:21:49 51°9.188 2°36.989 5.24819 3.243373 33.307199  
2002-12-13 09:21:54 51°9.19 2°36.991 5.24819 3.243373 33.307199  
2002-12-13 09:21:59 51°9.193 2°36.994 5.20433 3.242846 33.303801  
2002-12-13 09:22:03 51°9.195 2°36.996 5.245159 3.242635 33.304864  
2002-12-13 09:22:09 51°9.198 2°36.999 5.244856 3.242214 33.302664  
2002-12-13 09:22:14 51°9.2 2°37.002 5.202308 3.241898 33.300798  
2002-12-13 09:22:17 51°9.202 2°37.004 5.242936 3.241582 33.299796  
2002-12-13 09:22:24 51°9.205 2°37.008 5.242936 3.241582 33.299796  
2002-12-13 09:22:29 51°9.207 2°37.011 5.24329 3.240635 33.289871  
2002-12-13 09:22:34 51°9.209 2°37.014 5.203218 3.240635 33.291601  
2002-12-13 09:22:39 51°9.211 2°37.017 5.203976 3.24074 33.29453  
2002-12-13 09:22:44 51°9.213 2°37.02 5.205897 3.240319 33.290599  
2002-12-13 09:22:49 51°9.215 2°37.023 5.205695 3.240424 33.291798  
2002-12-13 09:22:53 51°9.217 2°37.026 5.205695 3.240424 33.291798  
2002-12-13 09:22:59 51°9.219 2°37.03 5.247382 3.240319 33.292329  
2002-12-13 09:23:01 51°9.22 2°37.032 5.206352 3.240003 33.288731  
2002-12-13 09:23:09 51°9.222 2°37.037 5.208424 3.240319 33.290599  
2002-12-13 09:23:14 51°9.224 2°37.041 5.251675 3.240108 33.287335  
2002-12-13 09:23:19 51°9.225 2°37.044 5.21363 3.239476 33.280141  
2002-12-13 09:23:23 51°9.226 2°37.047 5.21363 3.239476 33.280141  
2002-12-13 09:23:29 51°9.228 2°37.051 5.21641 3.240213 33.286805  
2002-12-13 09:23:34 51°9.229 2°37.055 5.218128 3.240213 33.286805  
2002-12-13 09:23:39 51°9.231 2°37.059 5.219846 3.240108 33.283876  
2002-12-13 09:23:44 51°9.232 2°37.062 5.2202 3.240319 33.285409  
2002-12-13 09:23:49 51°9.233 2°37.066 5.305445 3.240845 33.289674  
2002-12-13 09:23:54 51°9.234 2°37.071 5.305445 3.240845 33.289674  
2002-12-13 09:23:59 51°9.236 2°37.074 5.266018 3.240003 33.27749  
2002-12-13 09:24:03 51°9.236 2°37.077 5.226516 3.240845 33.286215  
2002-12-13 09:24:09 51°9.238 2°37.082 5.229043 3.240951 33.283955  
2002-12-13 09:24:13 51°9.238 2°37.085 5.230912 3.240845 33.282757  
2002-12-13 09:24:19 51°9.24 2°37.09 5.229649 3.241582 33.288553  
2002-12-13 09:24:23 51°9.24 2°37.093 5.229649 3.241582 33.288553  
2002-12-13 09:24:29 51°9.241 2°37.098 5.22495 3.241161 33.283759  
2002-12-13 09:24:34 51°9.241 2°37.102 5.220655 3.24095 33.280498  
2002-12-13 09:24:39 51°9.242 2°37.106 5.217572 3.241688 33.286294  
2002-12-13 09:24:43 51°9.242 2°37.109 5.214641 3.241477 33.282168  
2002-12-13 09:24:49 51°9.242 2°37.114 5.213529 3.242003 33.286431  
2002-12-13 09:24:54 51°9.243 2°37.118 5.213529 3.242003 33.286431  
2002-12-13 09:24:59 51°9.243 2°37.123 5.292524 3.241793 33.284035  
2002-12-13 09:25:05 51°9.243 2°37.129 5.207919 3.241793 33.288357  
2002-12-13 09:25:09 51°9.244 2°37.134 5.328655 3.241688 33.288887  
2002-12-13 09:25:14 51°9.244 2°37.14 5.20342 3.241056 33.283425  
2002-12-13 09:25:19 51°9.245 2°37.146 5.289596 3.240951 33.286549  
2002-12-13 09:25:24 51°9.246 2°37.153 5.289596 3.240951 33.286549  
2002-12-13 09:25:29 51°9.249 2°37.161 5.248998 3.240845 33.286215  
2002-12-13 09:25:34 51°9.251 2°37.169 5.206453 3.240529 33.286942  
2002-12-13 09:25:39 51°9.254 2°37.178 5.288637 3.240635 33.289871  
2002-12-13 09:25:44 51°9.258 2°37.188 5.241219 3.240003 33.286136  
2002-12-13 09:25:49 51°9.263 2°37.197 5.278389 3.239792 33.284603  
2002-12-13 09:25:54 51°9.269 2°37.205 5.278389 3.239792 33.284603  
2002-12-13 09:25:59 51°9.276 2°37.213 5.196393 3.239687 33.281674  
2002-12-13 09:26:04 51°9.284 2°37.22 5.196646 3.239898 33.284072  
2002-12-13 09:26:09 51°9.292 2°37.226 5.246675 3.239687 33.281674  
2002-12-13 09:26:14 51°9.301 2°37.23 5.261473 3.239476 33.282736  
2002-12-13 09:26:19 51°9.31 2°37.232 5.251423 3.239266 33.284662  
2002-12-13 09:26:23 51°9.318 2°37.233 5.251423 3.239266 33.284662  
2002-12-13 09:26:29 51°9.329 2°37.231 5.28475 3.238739 33.280396  
2002-12-13 09:26:34 51°9.339 2°37.228 5.320179 3.238739 33.280396  
2002-12-13 09:26:39 51°9.348 2°37.223 5.355538 3.238529 33.277133  
2002-12-13 09:26:44 51°9.356 2°37.216 5.388256 3.23916 33.276544  
2002-12-13 09:26:49 51°9.364 2°37.207 5.539879 3.240319 33.274171  
2002-12-13 09:26:54 51°9.371 2°37.197 5.539879 3.240319 33.274171  
2002-12-13 09:26:59 51°9.377 2°37.186 5.442967 3.242003 33.268291  
2002-12-13 09:27:04 51°9.381 2°37.174 5.466983 3.243688 33.259837  
2002-12-13 09:27:09 51°9.384 2°37.162 5.482283 3.24632 33.257854  
2002-12-13 09:27:14 51°9.385 2°37.149 5.540583 3.249163 33.258271  
2002-12-13 09:27:19 51°9.386 2°37.136 5.513829 3.251269 33.254635  
2002-12-13 09:27:23 51°9.385 2°37.125 5.513829 3.251269 33.254635  
2002-12-13 09:27:29 51°9.382 2°37.11 5.52072 3.253796 33.258358  
2002-12-13 09:27:33 51°9.381 2°37.098 5.530426 3.256534 33.259314  
2002-12-13 09:27:39 51°9.377 2°37.082 5.53294 3.258324 33.258985  
2002-12-13 09:27:44 51°9.374 2°37.067 5.529923 3.259903 33.259706  
2002-12-13 09:27:49 51°9.369 2°37.053 5.566823 3.261588 33.261618  
2002-12-13 09:27:54 51°9.365 2°37.038 5.566823 3.261588 33.261618  
2002-12-13 09:27:59 51°9.36 2°37.022 5.521223 3.262957 33.264243  
2002-12-13 09:28:04 51°9.355 2°37.005 5.517451 3.264115 33.264487  
2002-12-13 09:28:09 51°9.348 2°36.987 5.595514 3.265274 33.269012  
2002-12-13 09:28:14 51°9.342 2°36.968 5.5529 3.266011 33.273914  
2002-12-13 09:28:19 51°9.334 2°36.947 5.514483 3.266011 33.273914  
2002-12-13 09:28:23 51°9.328 2°36.929 5.514483 3.266011 33.273914  
2002-12-13 09:28:29 51°9.318 2°36.902 5.514534 3.266221 33.277149  
2002-12-13 09:28:34 51°9.31 2°36.878 5.514735 3.266432 33.282096  
2002-12-13 09:28:37 51°9.305 2°36.863 5.510459 3.266221 33.282286  
2002-12-13 09:28:43 51°9.295 2°36.834 5.506384 3.2658 33.280097  
2002-12-13 09:28:49 51°9.285 2°36.803 5.542293 3.265906 33.281287  
2002-12-13 09:28:54 51°9.277 2°36.777 5.542293 3.265906 33.281287  
2002-12-13 09:28:59 51°9.269 2°36.752 5.499241 3.266011 33.282477  
2002-12-13 09:29:02 51°9.264 2°36.736 5.498033 3.2658 33.280097  
2002-12-13 09:29:09 51°9.252 2°36.7 5.568833 3.266011 33.283333  
2002-12-13 09:29:14 51°9.243 2°36.673 5.476798 3.266011 33.28419  
2002-12-13 09:29:18 51°9.237 2°36.652 5.466731 3.266011 33.287617  
2002-12-13 09:29:24 51°9.227 2°36.62 5.466731 3.266011 33.287617  
2002-12-13 09:29:29 51°9.219 2°36.593 5.50241 3.265906 33.289854  
2002-12-13 09:29:34 51°9.211 2°36.566 5.461244 3.265906 33.29414  
2002-12-13 09:29:39 51°9.203 2°36.54 5.452937 3.26559 33.294855  
2002-12-13 09:29:42 51°9.198 2°36.523 5.448859 3.265695 33.30119  
2002-12-13 09:29:49 51°9.186 2°36.486 5.44196 3.264642 33.300435  
2002-12-13 09:29:54 51°9.178 2°36.459 5.44196 3.264642 33.300435  
2002-12-13 09:29:59 51°9.17 2°36.432 5.476445 3.264221 33.303394  
2002-12-13 09:30:04 51°9.162 2°36.405 5.428765 3.26401 33.303586  
2002-12-13 09:30:09 51°9.154 2°36.378 5.423627 3.263905 33.307545  
2002-12-13 09:30:14 51°9.145 2°36.351 5.417683 3.263695 33.311173  
2002-12-13 09:30:17 51°9.14 2°36.335 5.413552 3.263168 33.309509  
2002-12-13 09:30:24 51°9.129 2°36.297 5.413552 3.263168 33.309509  
2002-12-13 09:30:29 51°9.12 2°36.27 5.410882 3.262431 33.308038  
2002-12-13 09:30:34 51°9.112 2°36.243 5.410529 3.262642 33.316437  
2002-12-13 09:30:39 51°9.104 2°36.217 5.410983 3.26201 33.313581  
2002-12-13 09:30:43 51°9.098 2°36.195 5.412293 3.261694 33.31688  
2002-12-13 09:30:49 51°9.087 2°36.163 5.413401 3.261273 33.318129  
2002-12-13 09:30:54 51°9.08 2°36.136 5.413401 3.261273 33.318129  
2002-12-13 09:30:59 51°9.071 2°36.11 5.415517 3.261168 33.319516  
2002-12-13 09:31:04 51°9.063 2°36.082 5.457569 3.260852 33.318518  
2002-12-13 09:31:09 51°9.055 2°36.055 5.416575 3.261168 33.323817  
2002-12-13 09:31:14 51°9.047 2°36.028 5.460288 3.261378 33.325342  
2002-12-13 09:31:19 51°9.039 2°36.001 5.422066 3.261273 33.32501  
2002-12-13 09:31:24 51°9.031 2°35.973 5.422066 3.261273 33.32501  
2002-12-13 09:31:29 51°9.022 2°35.946 5.425743 3.261484 33.326535  
2002-12-13 09:31:34 51°9.015 2°35.919 5.428513 3.261483 33.323955  
2002-12-13 09:31:39 51°9.007 2°35.892 5.471312 3.26201 33.329919  
2002-12-13 09:31:44 51°8.999 2°35.865 5.516093 3.262326 33.331777  
2002-12-13 09:31:49 51°8.99 2°35.838 5.436823 3.262431 33.330388  
2002-12-13 09:31:54 51°8.982 2°35.811 5.436823 3.262431 33.330388  
2002-12-13 09:31:59 51°8.974 2°35.784 5.522883 3.263168 33.337017  
2002-12-13 09:32:04 51°8.966 2°35.756 5.482938 3.263274 33.335628  
2002-12-13 09:32:09 51°8.958 2°35.729 5.442111 3.263905 33.339343  
2002-12-13 09:32:14 51°8.95 2°35.702 5.443219 3.264221 33.34034  
2002-12-13 09:32:19 51°8.942 2°35.675 5.445989 3.264643 33.342529  
2002-12-13 09:32:23 51°8.935 2°35.653 5.445989 3.264643 33.342529  
2002-12-13 09:32:29 51°8.925 2°35.621 5.44906 3.265274 33.347102  
2002-12-13 09:32:34 51°8.917 2°35.593 5.450621 3.26559 33.348098  
2002-12-13 09:32:39 51°8.909 2°35.566 5.4928 3.265801 33.348762  
2002-12-13 09:32:44 51°8.901 2°35.539 5.493102 3.266117 33.350619  
2002-12-13 09:32:49 51°8.893 2°35.512 5.45198 3.266222 33.350951  
2002-12-13 09:32:54 51°8.885 2°35.485 5.45198 3.266222 33.350951  
2002-12-13 09:32:59 51°8.877 2°35.457 5.452484 3.267065 33.357907  
2002-12-13 09:33:04 51°8.869 2°35.43 5.495819 3.267275 33.35771  
2002-12-13 09:33:09 51°8.86 2°35.403 5.456361 3.267802 33.36281  
2002-12-13 09:33:14 51°8.852 2°35.375 5.498134 3.268118 33.364665  
2002-12-13 09:33:17 51°8.848 2°35.359 5.45631 3.268434 33.367381  
2002-12-13 09:33:23 51°8.838 2°35.326 5.45631 3.268434 33.367381  
2002-12-13 09:33:29 51°8.828 2°35.293 5.498738 3.268539 33.367712  
2002-12-13 09:33:34 51°8.82 2°35.266 5.457569 3.268855 33.371288  
2002-12-13 09:33:39 51°8.812 2°35.238 5.456763 3.269171 33.374004  
2002-12-13 09:33:44 51°8.804 2°35.211 5.45631 3.269487 33.375858  
2002-12-13 09:33:49 51°8.796 2°35.184 5.458475 3.269803 33.377713  
2002-12-13 09:33:54 51°8.788 2°35.157 5.458475 3.269803 33.377713  
2002-12-13 09:33:59 51°8.78 2°35.13 5.460187 3.270329 33.383672  
2002-12-13 09:34:04 51°8.772 2°35.103 5.504926 3.270434 33.386585  
2002-12-13 09:34:09 51°8.764 2°35.075 5.464566 3.270645 33.387248  
2002-12-13 09:34:13 51°8.757 2°35.054 5.464365 3.27075 33.3893  
2002-12-13 09:34:19 51°8.748 2°35.021 5.466983 3.271277 33.393538  
2002-12-13 09:34:23 51°8.741 2°34.999 5.466983 3.271277 33.393538  
2002-12-13 09:34:29 51°8.732 2°34.967 5.468946 3.271488 33.396783  
2002-12-13 09:34:33 51°8.725 2°34.945 5.470053 3.272014 33.398438  
2002-12-13 09:34:39 51°8.716 2°34.912 5.47408 3.272119 33.398769  
2002-12-13 09:34:44 51°8.708 2°34.885 5.478912 3.272435 33.401483  
2002-12-13 09:34:49 51°8.7 2°34.858 5.479113 3.272646 33.403006  
2002-12-13 09:34:54 51°8.692 2°34.83 5.479113 3.272646 33.403006  
2002-12-13 09:34:58 51°8.686 2°34.808 5.522179 3.273172 33.406382  
2002-12-13 09:35:04 51°8.676 2°34.776 5.482938 3.27391 33.413001  
2002-12-13 09:35:09 51°8.668 2°34.748 5.48797 3.274226 33.415715  
2002-12-13 09:35:14 51°8.66 2°34.721 5.49109 3.274857 33.418559  
2002-12-13 09:35:19 51°8.651 2°34.694 5.494914 3.275384 33.422795  
2002-12-13 09:35:22 51°8.646 2°34.678 5.494914 3.275384 33.422795  
2002-12-13 09:35:29 51°8.635 2°34.64 5.497681 3.275489 33.422264  
2002-12-13 09:35:34 51°8.628 2°34.612 5.582904 3.276226 33.428882  
2002-12-13 09:35:39 51°8.619 2°34.585 5.503769 3.276542 33.429011  
2002-12-13 09:35:44 51°8.611 2°34.558 5.63117 3.277701 33.440394  
2002-12-13 09:35:49 51°8.603 2°34.53 5.508447 3.277806 33.437279  
2002-12-13 09:35:54 51°8.595 2°34.503 5.508447 3.277806 33.437279  
2002-12-13 09:35:58 51°8.589 2°34.482 5.512371 3.278438 33.440981  
2002-12-13 09:36:04 51°8.579 2°34.45 5.515992 3.27928 33.447064  
2002-12-13 09:36:09 51°8.571 2°34.424 5.517652 3.280017 33.451956  
2002-12-13 09:36:14 51°8.563 2°34.397 5.518809 3.280333 33.452084  
2002-12-13 09:36:19 51°8.555 2°34.37 5.520116 3.28107 33.458698  
2002-12-13 09:36:22 51°8.55 2°34.353 5.520116 3.28107 33.458698  
2002-12-13 09:36:29 51°8.539 2°34.316 5.520368 3.281808 33.462726  
2002-12-13 09:36:34 51°8.531 2°34.289 5.521173 3.282545 33.4702  
2002-12-13 09:36:39 51°8.523 2°34.262 5.568733 3.283177 33.47476  
2002-12-13 09:36:44 51°8.515 2°34.234 5.613596 3.283703 33.47899  
2002-12-13 09:36:49 51°8.507 2°34.207 5.533745 3.284124 33.481168  
2002-12-13 09:36:54 51°8.499 2°34.18 5.533745 3.284124 33.481168  
2002-12-13 09:36:57 51°8.494 2°34.163 5.534851 3.284756 33.48745  
2002-12-13 09:37:04 51°8.483 2°34.125 5.574663 3.285388 33.493731  
2002-12-13 09:37:09 51°8.475 2°34.098 5.535907 3.286125 33.498618  
2002-12-13 09:37:14 51°8.467 2°34.071 5.54551 3.287284 33.509989  
2002-12-13 09:37:19 51°8.459 2°34.044 5.561998 3.28781 33.512493  
2002-12-13 09:37:23 51°8.452 2°34.023 5.561998 3.28781 33.512493  
2002-12-13 09:37:29 51°8.443 2°33.99 5.604756 3.288548 33.518239  
2002-12-13 09:37:33 51°8.436 2°33.968 5.64347 3.289285 33.524847  
2002-12-13 09:37:37 51°8.43 2°33.946 5.677193 3.289917 33.530265  
2002-12-13 09:37:44 51°8.419 2°33.908 5.696254 3.291075 33.539908  
2002-12-13 09:37:49 51°8.411 2°33.882 5.707137 3.292549 33.54967  
2002-12-13 09:37:54 51°8.403 2°33.854 5.707137 3.292549 33.54967  
2002-12-13 09:37:59 51°8.395 2°33.827 5.756462 3.295182 33.555268  
2002-12-13 09:38:03 51°8.389 2°33.806 5.763827 3.298973 33.573939  
2002-12-13 09:38:09 51°8.379 2°33.773 5.725287 3.302027 33.57308  
2002-12-13 09:38:14 51°8.371 2°33.746 5.729548 3.305186 33.578577  
2002-12-13 09:38:19 51°8.363 2°33.719 5.729198 3.308135 33.596317  
2002-12-13 09:38:24 51°8.355 2°33.692 5.729198 3.308135 33.596317  
2002-12-13 09:38:29 51°8.347 2°33.664 5.729097 3.309399 33.59593  
2002-12-13 09:38:34 51°8.339 2°33.636 5.726741 3.311715 33.610839  
2002-12-13 09:38:39 51°8.331 2°33.609 5.724936 3.312663 33.614631  
2002-12-13 09:38:44 51°8.323 2°33.583 5.72243 3.313822 33.620791  
2002-12-13 09:38:49 51°8.315 2°33.557 5.714207 3.31477 33.628019  
2002-12-13 09:38:53 51°8.309 2°33.536 5.714207 3.31477 33.628019  
2002-12-13 09:38:58 51°8.302 2°33.512 5.744685 3.315191 33.6319  
2002-12-13 09:39:04 51°8.294 2°33.484 5.696254 3.315717 33.636966  
2002-12-13 09:39:09 51°8.288 2°33.463 5.685821 3.315823 33.638152  
2002-12-13 09:39:14 51°8.282 2°33.443 5.718519 3.316455 33.647844  
2002-12-13 09:39:17 51°8.279 2°33.431 5.709143 3.316455 33.649565  
2002-12-13 09:39:25 51°8.27 2°33.402 5.709143 3.316455 33.649565  
2002-12-13 09:39:29 51°8.266 2°33.388 5.660886 3.316455 33.654729  
2002-12-13 09:39:34 51°8.262 2°33.371 5.655064 3.316665 33.664849  
2002-12-13 09:39:39 51°8.257 2°33.354 5.690838 3.316034 33.666347  
2002-12-13 09:39:44 51°8.253 2°33.338 5.644825 3.315612 33.669357  
2002-12-13 09:39:49 51°8.248 2°33.322 5.641412 3.315402 33.67388  
2002-12-13 09:39:54 51°8.244 2°33.307 5.641412 3.315402 33.67388  
2002-12-13 09:39:59 51°8.24 2°33.292 5.636291 3.315086 33.67808  
2002-12-13 09:40:04 51°8.235 2°33.278 5.633379 3.314665 33.681958  
2002-12-13 09:40:09 51°8.231 2°33.263 5.631974 3.314454 33.685624  
2002-12-13 09:40:13 51°8.228 2°33.252 5.631221 3.313928 33.684865  
2002-12-13 09:40:19 51°8.223 2°33.235 5.708441 3.313822 33.687994  
2002-12-13 09:40:23 51°8.219 2°33.225 5.708441 3.313822 33.687994  
2002-12-13 09:40:29 51°8.215 2°33.208 5.699715 3.313612 33.690799  
2002-12-13 09:40:33 51°8.211 2°33.198 5.709594 3.313822 33.697494  
2002-12-13 09:40:39 51°8.207 2°33.183 5.705583 3.313401 33.694469  
2002-12-13 09:40:44 51°8.203 2°33.17 5.72624 3.313717 33.699761  
2002-12-13 09:40:49 51°8.199 2°33.157 5.783964 3.31477 33.703002  
2002-12-13 09:40:54 51°8.195 2°33.144 5.783964 3.31477 33.703002  
2002-12-13 09:40:58 51°8.192 2°33.134 5.753505 3.315613 33.70473  
2002-12-13 09:41:04 51°8.187 2°33.119 5.761622 3.316561 33.708509  
2002-12-13 09:41:09 51°8.184 2°33.106 5.768586 3.318035 33.707862  
2002-12-13 09:41:14 51°8.18 2°33.094 5.773646 3.319299 33.700533  
2002-12-13 09:41:19 51°8.176 2°33.082 5.817813 3.320562 33.699248  
2002-12-13 09:41:22 51°8.174 2°33.076 5.817813 3.320562 33.699248  
2002-12-13 09:41:29 51°8.169 2°33.061 5.779807 3.322036 33.698612  
2002-12-13 09:41:34 51°8.164 2°33.051 5.780158 3.323722 33.707237  
2002-12-13 09:41:39 51°8.16 2°33.042 5.782161 3.324037 33.70218  
2002-12-13 09:41:44 51°8.155 2°33.035 5.787971 3.324775 33.701864  
2002-12-13 09:41:49 51°8.151 2°33.029 5.796084 3.325406 33.702945  
2002-12-13 09:41:54 51°8.146 2°33.024 5.796084 3.325406 33.702945  
2002-12-13 09:41:59 51°8.141 2°33.019 5.797736 3.325722 33.703056  
2002-12-13 09:42:04 51°8.136 2°33.016 5.837132 3.326249 33.706395  
2002-12-13 09:42:09 51°8.131 2°33.013 5.792879 3.326565 33.707366  
2002-12-13 09:42:14 51°8.126 2°33.01 5.794381 3.327091 33.709844  
2002-12-13 09:42:19 51°8.12 2°33.009 5.799539 3.327618 33.710601  
2002-12-13 09:42:22 51°8.117 2°33.008 5.799539 3.327618 33.710601  
2002-12-13 09:42:29 51°8.11 2°33.006 5.801442 3.328039 33.711894  
2002-12-13 09:42:34 51°8.105 2°33.003 5.796885 3.327934 33.70985  
2002-12-13 09:42:39 51°8.1 2°33.001 5.787871 3.32825 33.712541  
2002-12-13 09:42:44 51°8.095 2°33 5.779857 3.328355 33.712864  
2002-12-13 09:42:49 51°8.091 2°32.999 5.814359 3.328566 33.712651  
2002-12-13 09:42:53 51°8.088 2°32.998 5.814359 3.328566 33.712651  
2002-12-13 09:42:59 51°8.082 2°32.997 5.766131 3.328355 33.708564  
2002-12-13 09:43:04 51°8.078 2°32.995 5.759518 3.328987 33.714805  
2002-12-13 09:43:09 51°8.074 2°32.994 5.752553 3.328987 33.718245  
2002-12-13 09:43:13 51°8.071 2°32.993 5.745086 3.328987 33.723408  
2002-12-13 09:43:17 51°8.068 2°32.992 5.715962 3.328777 33.727065  
2002-12-13 09:43:22 51°8.065 2°32.991 5.715962 3.328777 33.727065  
2002-12-13 09:43:29 51°8.062 2°32.991 5.689032 3.328566 33.730724  
2002-12-13 09:43:34 51°8.062 2°32.99 5.669918 3.328461 33.736429  
2002-12-13 09:43:39 51°8.062 2°32.99 5.661136 3.328461 33.744184  
2002-12-13 09:43:44 51°8.062 2°32.99 5.659079 3.327829 33.743109  
2002-12-13 09:43:49 51°8.062 2°32.99 5.652253 3.327618 33.754536  
2002-12-13 09:43:54 51°8.062 2°32.989 5.652253 3.327618 33.754536  
2002-12-13 09:43:59 51°8.061 2°32.989 5.631321 3.327197 33.767917  
2002-12-13 09:44:04 51°8.061 2°32.988 5.630216 3.32646 33.780348  
2002-12-13 09:44:09 51°8.061 2°32.988 5.627555 3.325513 33.782635  
2002-12-13 09:44:14 51°8.06 2°32.987 5.622836 3.324565 33.784925  
2002-12-13 09:44:19 51°8.06 2°32.986 5.621781 3.32446 33.792392  
2002-12-13 09:44:24 51°8.06 2°32.985 5.621781 3.32446 33.792392  
2002-12-13 09:44:29 51°8.06 2°32.985 5.618467 3.323722 33.794466  
2002-12-13 09:44:33 51°8.059 2°32.984 5.658376 3.323196 33.800652  
2002-12-13 09:44:39 51°8.059 2°32.984 5.613545 3.322564 33.796987  
2002-12-13 09:44:45 51°8.059 2°32.982 5.611938 3.322354 33.799809  
2002-12-13 09:44:49 51°8.059 2°32.982 5.611737 3.322038 33.797976  
2002-12-13 09:44:53 51°8.059 2°32.981 5.611737 3.322038 33.797976  
2002-12-13 09:44:58 51°8.058 2°32.98 5.611587 3.321827 33.801666  
2002-12-13 09:45:02 51°8.058 2°32.979 5.652354 3.321616 33.801022  
2002-12-13 09:45:09 51°8.058 2°32.978 5.610884 3.3213 33.800056  
2002-12-13 09:45:14 51°8.058 2°32.977 5.652203 3.32109 33.800279  
2002-12-13 09:45:19 51°8.057 2°32.976 5.612641 3.320879 33.798768  
2002-12-13 09:45:24 51°8.057 2°32.975 5.612641 3.320879 33.798768  
2002-12-13 09:45:29 51°8.057 2°32.974 5.615203 3.318457 33.773151  
2002-12-13 09:45:34 51°8.057 2°32.973 5.615052 3.314244 33.727321  
2002-12-13 09:45:37 51°8.057 2°32.973 5.612742 3.316456 33.75229  
2002-12-13 09:45:43 51°8.057 2°32.972 5.611085 3.318667 33.777262  
2002-12-13 09:45:49 51°8.057 2°32.97 5.651099 3.320563 33.798669  
2002-12-13 09:45:54 51°8.057 2°32.969 5.651099 3.320563 33.798669  
2002-12-13 09:45:59 51°8.056 2°32.968 5.608172 3.320142 33.793044  
2002-12-13 09:46:04 51°8.056 2°32.968 5.605861 3.320669 33.797256  
2002-12-13 09:46:09 51°8.056 2°32.967 5.604907 3.320774 33.798446  
2002-12-13 09:46:14 51°8.056 2°32.966 5.604153 3.320563 33.796934  
2002-12-13 09:46:19 51°8.055 2°32.965 5.603902 3.320353 33.797157  
2002-12-13 09:46:25 51°8.055 2°32.964 5.603902 3.320353 33.797157  
2002-12-13 09:46:29 51°8.055 2°32.964 5.60335 3.319721 33.790888  
2002-12-13 09:46:34 51°8.055 2°32.962 5.602446 3.320669 33.803327  
2002-12-13 09:46:39 51°8.055 2°32.962 5.60119 3.319721 33.794357  
2002-12-13 09:46:44 51°8.054 2°32.961 5.643018 3.319826 33.797281  
2002-12-13 09:46:49 51°8.054 2°32.96 5.642817 3.319194 33.790144  
2002-12-13 09:46:54 51°8.054 2°32.959 5.642817 3.319194 33.790144  
2002-12-13 09:46:59 51°8.054 2°32.958 5.60114 3.319405 33.79339  
2002-12-13 09:47:04 51°8.054 2°32.958 5.600185 3.316456 33.760086  
2002-12-13 09:47:09 51°8.053 2°32.957 5.600236 3.319826 33.799016  
2002-12-13 09:47:14 51°8.053 2°32.956 5.600939 3.318246 33.78204  
2002-12-13 09:47:19 51°8.052 2°32.956 5.602094 3.31772 33.776959  
2002-12-13 09:47:22 51°8.052 2°32.955 5.602094 3.31772 33.776959  
2002-12-13 09:47:29 51°8.052 2°32.954 5.60335 3.318246 33.783774  
2002-12-13 09:47:34 51°8.052 2°32.953 5.604153 3.3193 33.796537  
2002-12-13 09:47:39 51°8.052 2°32.952 5.603802 3.318141 33.783451  
2002-12-13 09:47:42 51°8.052 2°32.952 5.604053 3.319616 33.800106  
2002-12-13 09:47:49 51°8.052 2°32.951 5.604254 3.319615 33.799239  
2002-12-13 09:47:54 51°8.052 2°32.95 5.604254 3.319615 33.799239